sensor_id;sensor_type;location;lat;lon;timestamp;pressure;altitude;pressure_sealevel;temperature;humidity
19005;BME280;9635;52.078;8.648;2022-09-24T00:02:39;100146.31;;;13.11;66.28
19005;BME280;9635;52.078;8.648;2022-09-24T00:07:44;100142.34;;;13.05;66.31
19005;BME280;9635;52.078;8.648;2022-09-24T00:12:47;100145.63;;;12.99;66.56
19005;BME280;9635;52.078;8.648;2022-09-24T00:17:50;100141.47;;;13.05;66.41
19005;BME280;9635;52.078;8.648;2022-09-24T00:22:54;100136.66;;;13.09;66.48
19005;BME280;9635;52.078;8.648;2022-09-24T00:27:57;100130.88;;;13.03;66.22
19005;BME280;9635;52.078;8.648;2022-09-24T00:33:00;100137.09;;;13.04;65.87
19005;BME280;9635;52.078;8.648;2022-09-24T00:38:04;100133.97;;;13.09;65.88
19005;BME280;9635;52.078;8.648;2022-09-24T00:43:21;100126.31;;;13.14;66.15
19005;BME280;9635;52.078;8.648;2022-09-24T00:48:24;100125.00;;;13.08;67.72
19005;BME280;9635;52.078;8.648;2022-09-24T00:53:29;100118.81;;;12.98;68.26
19005;BME280;9635;52.078;8.648;2022-09-24T00:58:33;100119.69;;;12.89;68.25
19005;BME280;9635;52.078;8.648;2022-09-24T01:03:37;100128.06;;;12.86;68.77
19005;BME280;9635;52.078;8.648;2022-09-24T01:08:44;100119.84;;;12.77;70.10
19005;BME280;9635;52.078;8.648;2022-09-24T01:13:57;100120.13;;;12.74;70.55
19005;BME280;9635;52.078;8.648;2022-09-24T01:19:17;100107.97;;;12.70;70.51
19005;BME280;9635;52.078;8.648;2022-09-24T01:24:36;100107.66;;;12.73;70.98
19005;BME280;9635;52.078;8.648;2022-09-24T01:30:07;100106.81;;;12.73;71.54
19005;BME280;9635;52.078;8.648;2022-09-24T01:35:15;100115.88;;;12.72;71.79
19005;BME280;9635;52.078;8.648;2022-09-24T01:40:24;100112.50;;;12.60;71.96
19005;BME280;9635;52.078;8.648;2022-09-24T01:45:30;100108.84;;;12.51;71.80
19005;BME280;9635;52.078;8.648;2022-09-24T01:50:39;100105.13;;;12.52;72.08
19005;BME280;9635;52.078;8.648;2022-09-24T01:55:47;100097.22;;;12.51;72.15
19005;BME280;9635;52.078;8.648;2022-09-24T02:00:58;100097.94;;;12.43;73.08
19005;BME280;9635;52.078;8.648;2022-09-24T02:06:09;100095.06;;;12.45;73.38
19005;BME280;9635;52.078;8.648;2022-09-24T02:11:15;100095.06;;;12.45;73.36
19005;BME280;9635;52.078;8.648;2022-09-24T02:16:24;100089.25;;;12.39;72.86
19005;BME280;9635;52.078;8.648;2022-09-24T02:21:30;100093.97;;;12.37;72.88
19005;BME280;9635;52.078;8.648;2022-09-24T02:26:33;100096.94;;;12.34;73.30
19005;BME280;9635;52.078;8.648;2022-09-24T02:31:39;100091.25;;;12.28;73.27
19005;BME280;9635;52.078;8.648;2022-09-24T02:36:44;100088.28;;;12.21;72.75
19005;BME280;9635;52.078;8.648;2022-09-24T02:41:48;100091.69;;;12.23;72.67
19005;BME280;9635;52.078;8.648;2022-09-24T02:46:53;100079.63;;;12.27;72.45
19005;BME280;9635;52.078;8.648;2022-09-24T02:51:57;100077.94;;;12.26;72.04
19005;BME280;9635;52.078;8.648;2022-09-24T02:57:00;100082.03;;;12.21;71.87
19005;BME280;9635;52.078;8.648;2022-09-24T03:02:04;100075.09;;;12.18;71.65
19005;BME280;9635;52.078;8.648;2022-09-24T03:07:07;100070.56;;;12.19;71.49
19005;BME280;9635;52.078;8.648;2022-09-24T03:12:11;100065.59;;;12.14;71.44
19005;BME280;9635;52.078;8.648;2022-09-24T03:17:16;100065.59;;;12.14;71.44
19005;BME280;9635;52.078;8.648;2022-09-24T03:22:19;100061.75;;;12.16;71.57
19005;BME280;9635;52.078;8.648;2022-09-24T03:27:22;100056.53;;;12.15;71.17
19005;BME280;9635;52.078;8.648;2022-09-24T03:32:26;100063.63;;;12.16;71.01
19005;BME280;9635;52.078;8.648;2022-09-24T03:37:30;100064.03;;;12.11;70.59
19005;BME280;9635;52.078;8.648;2022-09-24T03:42:33;100065.44;;;11.86;71.16
19005;BME280;9635;52.078;8.648;2022-09-24T03:47:38;100059.63;;;11.81;71.84
19005;BME280;9635;52.078;8.648;2022-09-24T03:52:42;100055.25;;;12.00;71.99
19005;BME280;9635;52.078;8.648;2022-09-24T03:57:45;100049.47;;;12.04;71.21
19005;BME280;9635;52.078;8.648;2022-09-24T04:02:49;100050.44;;;12.03;71.22
19005;BME280;9635;52.078;8.648;2022-09-24T04:07:52;100051.28;;;12.04;71.10
19005;BME280;9635;52.078;8.648;2022-09-24T04:12:55;100047.59;;;12.05;71.74
19005;BME280;9635;52.078;8.648;2022-09-24T04:17:59;100032.03;;;11.99;72.32
19005;BME280;9635;52.078;8.648;2022-09-24T04:23:02;100034.84;;;11.87;73.53
19005;BME280;9635;52.078;8.648;2022-09-24T04:28:07;100044.34;;;11.72;74.31
19005;BME280;9635;52.078;8.648;2022-09-24T04:33:11;100047.00;;;11.62;75.33
19005;BME280;9635;52.078;8.648;2022-09-24T04:38:14;100044.72;;;11.48;76.29
19005;BME280;9635;52.078;8.648;2022-09-24T04:43:17;100036.94;;;11.45;77.23
19005;BME280;9635;52.078;8.648;2022-09-24T04:48:21;100035.78;;;11.38;78.15
19005;BME280;9635;52.078;8.648;2022-09-24T04:53:24;100026.56;;;11.31;78.75
19005;BME280;9635;52.078;8.648;2022-09-24T04:58:27;100035.94;;;11.36;79.56
19005;BME280;9635;52.078;8.648;2022-09-24T05:03:32;100038.63;;;11.36;79.48
19005;BME280;9635;52.078;8.648;2022-09-24T05:08:34;100035.06;;;11.36;80.12
19005;BME280;9635;52.078;8.648;2022-09-24T05:13:37;100040.97;;;11.30;80.38
19005;BME280;9635;52.078;8.648;2022-09-24T05:18:41;100045.97;;;11.34;81.17
19005;BME280;9635;52.078;8.648;2022-09-24T05:23:44;100052.19;;;11.35;81.36
19005;BME280;9635;52.078;8.648;2022-09-24T05:28:47;100051.75;;;11.30;81.60
19005;BME280;9635;52.078;8.648;2022-09-24T05:33:51;100062.94;;;11.35;82.07
19005;BME280;9635;52.078;8.648;2022-09-24T05:38:54;100064.34;;;11.29;81.78
19005;BME280;9635;52.078;8.648;2022-09-24T05:43:57;100066.47;;;11.25;82.50
19005;BME280;9635;52.078;8.648;2022-09-24T05:49:01;100064.50;;;11.37;83.20
19005;BME280;9635;52.078;8.648;2022-09-24T05:54:05;100078.53;;;11.41;83.40
19005;BME280;9635;52.078;8.648;2022-09-24T05:59:08;100087.75;;;11.38;83.41
19005;BME280;9635;52.078;8.648;2022-09-24T06:04:12;100088.78;;;11.16;83.29
19005;BME280;9635;52.078;8.648;2022-09-24T06:09:16;100080.63;;;11.27;84.10
19005;BME280;9635;52.078;8.648;2022-09-24T06:14:19;100092.34;;;11.26;84.54
19005;BME280;9635;52.078;8.648;2022-09-24T06:19:23;100093.56;;;11.13;83.51
19005;BME280;9635;52.078;8.648;2022-09-24T06:24:26;100092.13;;;11.09;84.46
19005;BME280;9635;52.078;8.648;2022-09-24T06:29:29;100092.44;;;11.15;84.68
19005;BME280;9635;52.078;8.648;2022-09-24T06:34:33;100098.72;;;11.25;85.22
19005;BME280;9635;52.078;8.648;2022-09-24T06:39:36;100094.19;;;11.26;84.95
19005;BME280;9635;52.078;8.648;2022-09-24T06:44:39;100097.63;;;11.07;84.57
19005;BME280;9635;52.078;8.648;2022-09-24T06:49:44;100088.78;;;10.95;85.91
19005;BME280;9635;52.078;8.648;2022-09-24T06:54:47;100090.88;;;11.13;86.56
19005;BME280;9635;52.078;8.648;2022-09-24T06:59:50;100098.66;;;11.16;86.16
19005;BME280;9635;52.078;8.648;2022-09-24T07:04:54;100098.56;;;11.17;87.11
19005;BME280;9635;52.078;8.648;2022-09-24T07:09:58;100089.72;;;11.46;87.82
19005;BME280;9635;52.078;8.648;2022-09-24T07:15:02;100098.94;;;11.53;87.14
19005;BME280;9635;52.078;8.648;2022-09-24T07:20:08;100094.84;;;11.59;87.97
19005;BME280;9635;52.078;8.648;2022-09-24T07:25:11;100101.81;;;11.61;87.28
19005;BME280;9635;52.078;8.648;2022-09-24T07:30:15;100102.94;;;11.59;87.60
19005;BME280;9635;52.078;8.648;2022-09-24T07:35:19;100099.41;;;11.68;87.84
19005;BME280;9635;52.078;8.648;2022-09-24T07:40:22;100103.81;;;11.69;87.71
19005;BME280;9635;52.078;8.648;2022-09-24T07:45:27;100112.88;;;11.78;88.34
19005;BME280;9635;52.078;8.648;2022-09-24T07:50:33;100103.66;;;11.70;87.74
19005;BME280;9635;52.078;8.648;2022-09-24T07:55:37;100107.09;;;11.92;88.50
19005;BME280;9635;52.078;8.648;2022-09-24T08:00:41;100108.09;;;11.91;88.01
19005;BME280;9635;52.078;8.648;2022-09-24T08:05:46;100108.38;;;11.88;87.90
19005;BME280;9635;52.078;8.648;2022-09-24T08:10:49;100105.00;;;12.05;88.44
19005;BME280;9635;52.078;8.648;2022-09-24T08:15:55;100115.03;;;12.03;87.77
19005;BME280;9635;52.078;8.648;2022-09-24T08:21:04;100116.31;;;11.99;87.68
19005;BME280;9635;52.078;8.648;2022-09-24T08:26:07;100118.59;;;12.13;87.19
19005;BME280;9635;52.078;8.648;2022-09-24T08:31:11;100116.63;;;12.15;89.30
19005;BME280;9635;52.078;8.648;2022-09-24T08:36:16;100123.97;;;12.13;87.60
19005;BME280;9635;52.078;8.648;2022-09-24T08:41:29;100121.16;;;12.25;87.28
19005;BME280;9635;52.078;8.648;2022-09-24T08:46:41;100136.22;;;12.37;87.37
19005;BME280;9635;52.078;8.648;2022-09-24T08:52:25;100135.19;;;12.28;87.32
19005;BME280;9635;52.078;8.648;2022-09-24T08:57:36;100137.91;;;12.38;88.18
19005;BME280;9635;52.078;8.648;2022-09-24T09:02:43;100136.22;;;12.56;88.07
19005;BME280;9635;52.078;8.648;2022-09-24T09:07:56;100137.47;;;12.62;88.32
19005;BME280;9635;52.078;8.648;2022-09-24T09:13:08;100137.59;;;12.70;88.21
19005;BME280;9635;52.078;8.648;2022-09-24T09:18:15;100142.97;;;12.80;87.49
19005;BME280;9635;52.078;8.648;2022-09-24T09:23:21;100143.94;;;12.98;87.54
19005;BME280;9635;52.078;8.648;2022-09-24T09:28:31;100147.03;;;13.03;87.80
19005;BME280;9635;52.078;8.648;2022-09-24T09:33:44;100135.84;;;12.98;87.73
19005;BME280;9635;52.078;8.648;2022-09-24T09:38:56;100143.63;;;13.11;88.45
19005;BME280;9635;52.078;8.648;2022-09-24T09:44:10;100143.19;;;13.06;87.74
19005;BME280;9635;52.078;8.648;2022-09-24T09:49:15;100136.13;;;12.95;88.69
19005;BME280;9635;52.078;8.648;2022-09-24T09:54:20;100141.16;;;13.18;89.17
19005;BME280;9635;52.078;8.648;2022-09-24T09:59:25;100136.19;;;13.23;89.47
19005;BME280;9635;52.078;8.648;2022-09-24T10:04:36;100139.41;;;13.36;89.41
19005;BME280;9635;52.078;8.648;2022-09-24T10:09:42;100134.56;;;13.49;89.58
19005;BME280;9635;52.078;8.648;2022-09-24T10:14:56;100134.44;;;13.69;88.56
19005;BME280;9635;52.078;8.648;2022-09-24T10:20:00;100136.69;;;13.74;89.02
19005;BME280;9635;52.078;8.648;2022-09-24T10:25:15;100127.19;;;13.42;87.55
19005;BME280;9635;52.078;8.648;2022-09-24T10:30:19;100137.34;;;13.11;87.85
19005;BME280;9635;52.078;8.648;2022-09-24T10:35:38;100130.91;;;13.31;87.58
19005;BME280;9635;52.078;8.648;2022-09-24T10:40:42;100130.25;;;13.57;87.33
19005;BME280;9635;52.078;8.648;2022-09-24T10:46:03;100133.41;;;13.80;85.71
19005;BME280;9635;52.078;8.648;2022-09-24T10:51:26;100133.03;;;14.10;82.57
19005;BME280;9635;52.078;8.648;2022-09-24T10:56:35;100137.44;;;14.29;82.11
19005;BME280;9635;52.078;8.648;2022-09-24T11:01:53;100132.97;;;14.56;81.17
19005;BME280;9635;52.078;8.648;2022-09-24T11:07:48;100134.38;;;14.86;80.58
19005;BME280;9635;52.078;8.648;2022-09-24T11:13:03;100136.44;;;14.66;79.42
19005;BME280;9635;52.078;8.648;2022-09-24T11:18:23;100137.91;;;14.78;78.64
19005;BME280;9635;52.078;8.648;2022-09-24T11:23:45;100138.69;;;14.71;78.44
19005;BME280;9635;52.078;8.648;2022-09-24T11:29:16;100134.63;;;15.27;78.79
19005;BME280;9635;52.078;8.648;2022-09-24T11:34:32;100136.34;;;15.62;76.16
19005;BME280;9635;52.078;8.648;2022-09-24T11:39:54;100126.88;;;15.32;74.31
19005;BME280;9635;52.078;8.648;2022-09-24T11:45:12;100136.66;;;15.51;75.10
19005;BME280;9635;52.078;8.648;2022-09-24T11:50:28;100130.88;;;15.88;71.99
19005;BME280;9635;52.078;8.648;2022-09-24T11:55:38;100129.63;;;16.33;71.19
19005;BME280;9635;52.078;8.648;2022-09-24T12:00:50;100120.91;;;15.97;70.19
19005;BME280;9635;52.078;8.648;2022-09-24T12:05:57;100125.13;;;15.91;72.56
19005;BME280;9635;52.078;8.648;2022-09-24T12:11:07;100117.31;;;15.80;70.63
19005;BME280;9635;52.078;8.648;2022-09-24T12:16:15;100117.91;;;16.25;72.53
19005;BME280;9635;52.078;8.648;2022-09-24T12:21:24;100114.53;;;16.64;68.50
19005;BME280;9635;52.078;8.648;2022-09-24T12:26:29;100121.00;;;16.30;67.92
19005;BME280;9635;52.078;8.648;2022-09-24T12:31:41;100125.31;;;15.47;70.69
19005;BME280;9635;52.078;8.648;2022-09-24T12:37:08;100123.75;;;15.37;70.87
19005;BME280;9635;52.078;8.648;2022-09-24T12:42:13;100123.06;;;15.09;73.09
19005;BME280;9635;52.078;8.648;2022-09-24T12:47:21;100121.44;;;14.72;73.98
19005;BME280;9635;52.078;8.648;2022-09-24T12:52:26;100116.81;;;14.64;73.42
19005;BME280;9635;52.078;8.648;2022-09-24T12:57:34;100127.56;;;14.56;75.03
19005;BME280;9635;52.078;8.648;2022-09-24T13:02:45;100120.47;;;14.55;75.76
19005;BME280;9635;52.078;8.648;2022-09-24T13:07:57;100116.47;;;14.41;76.57
19005;BME280;9635;52.078;8.648;2022-09-24T13:13:01;100118.22;;;14.14;76.61
19005;BME280;9635;52.078;8.648;2022-09-24T13:18:18;100105.78;;;13.86;76.44
19005;BME280;9635;52.078;8.648;2022-09-24T13:23:31;100104.88;;;14.13;77.07
19005;BME280;9635;52.078;8.648;2022-09-24T13:28:48;100108.78;;;14.01;75.17
19005;BME280;9635;52.078;8.648;2022-09-24T13:33:57;100113.44;;;13.90;75.02
19005;BME280;9635;52.078;8.648;2022-09-24T13:39:09;100110.44;;;14.29;78.23
19005;BME280;9635;52.078;8.648;2022-09-24T13:44:18;100108.75;;;14.10;77.48
19005;BME280;9635;52.078;8.648;2022-09-24T13:49:26;100114.38;;;13.99;78.30
19005;BME280;9635;52.078;8.648;2022-09-24T13:54:33;100115.25;;;13.72;78.30
19005;BME280;9635;52.078;8.648;2022-09-24T13:59:37;100111.66;;;13.54;81.22
19005;BME280;9635;52.078;8.648;2022-09-24T14:04:42;100117.97;;;13.35;83.91
19005;BME280;9635;52.078;8.648;2022-09-24T14:09:47;100115.69;;;13.40;86.13
19005;BME280;9635;52.078;8.648;2022-09-24T14:14:53;100111.91;;;13.60;87.47
19005;BME280;9635;52.078;8.648;2022-09-24T14:20:00;100116.13;;;13.90;88.14
19005;BME280;9635;52.078;8.648;2022-09-24T14:25:07;100108.72;;;13.92;87.50
19005;BME280;9635;52.078;8.648;2022-09-24T14:30:17;100110.75;;;13.90;87.72
19005;BME280;9635;52.078;8.648;2022-09-24T14:35:27;100110.78;;;13.81;86.82
19005;BME280;9635;52.078;8.648;2022-09-24T14:40:39;100106.22;;;13.81;87.64
19005;BME280;9635;52.078;8.648;2022-09-24T14:45:43;100109.78;;;13.82;85.83
19005;BME280;9635;52.078;8.648;2022-09-24T14:50:49;100108.31;;;13.87;85.83
19005;BME280;9635;52.078;8.648;2022-09-24T14:55:52;100110.88;;;13.89;83.64
19005;BME280;9635;52.078;8.648;2022-09-24T15:00:56;100117.44;;;13.86;82.63
19005;BME280;9635;52.078;8.648;2022-09-24T15:06:04;100110.09;;;13.79;82.21
19005;BME280;9635;52.078;8.648;2022-09-24T15:11:14;100109.53;;;13.75;82.47
19005;BME280;9635;52.078;8.648;2022-09-24T15:16:25;100110.03;;;13.88;82.87
19005;BME280;9635;52.078;8.648;2022-09-24T15:21:30;100113.66;;;13.97;83.38
19005;BME280;9635;52.078;8.648;2022-09-24T15:26:34;100107.25;;;13.98;83.48
19005;BME280;9635;52.078;8.648;2022-09-24T15:31:38;100108.97;;;13.99;83.70
19005;BME280;9635;52.078;8.648;2022-09-24T15:36:42;100108.09;;;13.99;84.36
19005;BME280;9635;52.078;8.648;2022-09-24T15:41:46;100107.94;;;14.00;84.07
19005;BME280;9635;52.078;8.648;2022-09-24T15:46:50;100110.97;;;13.97;84.25
19005;BME280;9635;52.078;8.648;2022-09-24T15:51:56;100111.66;;;13.99;84.28
19005;BME280;9635;52.078;8.648;2022-09-24T15:57:01;100107.78;;;13.84;83.91
19005;BME280;9635;52.078;8.648;2022-09-24T16:02:14;100112.25;;;13.93;83.53
19005;BME280;9635;52.078;8.648;2022-09-24T16:07:19;100112.94;;;13.77;82.45
19005;BME280;9635;52.078;8.648;2022-09-24T16:12:22;100116.63;;;13.76;82.26
19005;BME280;9635;52.078;8.648;2022-09-24T16:17:28;100113.94;;;13.76;82.67
19005;BME280;9635;52.078;8.648;2022-09-24T16:22:34;100116.84;;;13.65;83.27
19005;BME280;9635;52.078;8.648;2022-09-24T16:27:37;100124.81;;;13.66;83.06
19005;BME280;9635;52.078;8.648;2022-09-24T16:32:41;100119.00;;;13.61;83.14
19005;BME280;9635;52.078;8.648;2022-09-24T16:37:46;100123.06;;;13.47;82.65
19005;BME280;9635;52.078;8.648;2022-09-24T16:42:48;100123.34;;;13.35;82.87
19005;BME280;9635;52.078;8.648;2022-09-24T16:47:51;100122.69;;;13.23;83.14
19005;BME280;9635;52.078;8.648;2022-09-24T16:52:56;100121.16;;;13.20;82.30
19005;BME280;9635;52.078;8.648;2022-09-24T16:57:58;100130.50;;;13.16;82.55
19005;BME280;9635;52.078;8.648;2022-09-24T17:03:02;100120.06;;;13.03;83.24
19005;BME280;9635;52.078;8.648;2022-09-24T17:08:06;100135.25;;;13.04;83.43
19005;BME280;9635;52.078;8.648;2022-09-24T17:13:09;100127.47;;;13.01;84.19
19005;BME280;9635;52.078;8.648;2022-09-24T17:18:12;100130.41;;;13.08;84.74
19005;BME280;9635;52.078;8.648;2022-09-24T17:23:16;100130.03;;;12.93;85.33
19005;BME280;9635;52.078;8.648;2022-09-24T17:28:20;100122.34;;;12.98;85.18
19005;BME280;9635;52.078;8.648;2022-09-24T17:33:23;100121.81;;;12.85;85.45
19005;BME280;9635;52.078;8.648;2022-09-24T17:38:45;100132.47;;;12.77;85.65
19005;BME280;9635;52.078;8.648;2022-09-24T17:43:48;100133.91;;;12.81;85.52
19005;BME280;9635;52.078;8.648;2022-09-24T17:48:53;100142.66;;;12.83;85.32
19005;BME280;9635;52.078;8.648;2022-09-24T17:53:59;100140.56;;;12.77;85.85
19005;BME280;9635;52.078;8.648;2022-09-24T17:59:02;100142.72;;;12.73;85.97
19005;BME280;9635;52.078;8.648;2022-09-24T18:04:08;100143.69;;;12.72;86.35
19005;BME280;9635;52.078;8.648;2022-09-24T18:09:14;100142.69;;;12.64;86.74
19005;BME280;9635;52.078;8.648;2022-09-24T18:14:19;100151.09;;;12.51;87.29
19005;BME280;9635;52.078;8.648;2022-09-24T18:19:22;100154.91;;;12.58;86.98
19005;BME280;9635;52.078;8.648;2022-09-24T18:24:26;100158.19;;;12.52;86.76
19005;BME280;9635;52.078;8.648;2022-09-24T18:29:29;100168.81;;;12.53;86.75
19005;BME280;9635;52.078;8.648;2022-09-24T18:34:32;100173.47;;;12.42;87.10
19005;BME280;9635;52.078;8.648;2022-09-24T18:39:36;100177.19;;;12.41;87.20
19005;BME280;9635;52.078;8.648;2022-09-24T18:44:39;100171.94;;;12.49;87.36
19005;BME280;9635;52.078;8.648;2022-09-24T18:49:42;100178.03;;;12.51;87.28
19005;BME280;9635;52.078;8.648;2022-09-24T18:54:46;100168.41;;;12.48;87.38
19005;BME280;9635;52.078;8.648;2022-09-24T18:59:49;100167.94;;;12.53;87.37
19005;BME280;9635;52.078;8.648;2022-09-24T19:04:52;100170.66;;;12.53;87.30
19005;BME280;9635;52.078;8.648;2022-09-24T19:09:56;100189.22;;;12.56;87.14
19005;BME280;9635;52.078;8.648;2022-09-24T19:14:59;100193.22;;;12.62;87.02
19005;BME280;9635;52.078;8.648;2022-09-24T19:20:02;100190.50;;;12.52;87.33
19005;BME280;9635;52.078;8.648;2022-09-24T19:25:07;100191.50;;;12.60;87.27
19005;BME280;9635;52.078;8.648;2022-09-24T19:30:11;100195.03;;;12.32;87.42
19005;BME280;9635;52.078;8.648;2022-09-24T19:35:14;100191.22;;;12.34;85.71
19005;BME280;9635;52.078;8.648;2022-09-24T19:40:18;100199.44;;;12.52;84.77
19005;BME280;9635;52.078;8.648;2022-09-24T19:45:21;100191.63;;;12.30;85.18
19005;BME280;9635;52.078;8.648;2022-09-24T19:50:23;100196.03;;;12.41;84.27
19005;BME280;9635;52.078;8.648;2022-09-24T19:55:28;100202.97;;;12.53;84.85
19005;BME280;9635;52.078;8.648;2022-09-24T20:00:32;100198.59;;;12.32;85.01
19005;BME280;9635;52.078;8.648;2022-09-24T20:05:35;100202.09;;;12.23;85.14
19005;BME280;9635;52.078;8.648;2022-09-24T20:10:40;100214.13;;;12.19;85.53
19005;BME280;9635;52.078;8.648;2022-09-24T20:15:45;100206.84;;;11.60;86.73
19005;BME280;9635;52.078;8.648;2022-09-24T20:20:47;100207.59;;;12.22;84.67
19005;BME280;9635;52.078;8.648;2022-09-24T20:25:53;100210.09;;;12.04;84.43
19005;BME280;9635;52.078;8.648;2022-09-24T20:31:15;100210.00;;;12.25;84.25
19005;BME280;9635;52.078;8.648;2022-09-24T20:36:21;100203.91;;;12.23;84.48
19005;BME280;9635;52.078;8.648;2022-09-24T20:41:27;100202.34;;;12.20;84.64
19005;BME280;9635;52.078;8.648;2022-09-24T20:46:29;100211.50;;;12.29;84.94
19005;BME280;9635;52.078;8.648;2022-09-24T20:51:32;100209.69;;;12.08;85.03
19005;BME280;9635;52.078;8.648;2022-09-24T20:56:36;100215.66;;;12.12;84.94
19005;BME280;9635;52.078;8.648;2022-09-24T21:01:39;100217.66;;;12.10;85.48
19005;BME280;9635;52.078;8.648;2022-09-24T21:06:43;100214.81;;;12.11;85.22
19005;BME280;9635;52.078;8.648;2022-09-24T21:11:48;100223.03;;;12.20;85.35
19005;BME280;9635;52.078;8.648;2022-09-24T21:16:53;100226.59;;;12.20;85.84
19005;BME280;9635;52.078;8.648;2022-09-24T21:21:57;100214.19;;;11.98;86.09
19005;BME280;9635;52.078;8.648;2022-09-24T21:27:03;100208.91;;;11.77;86.47
19005;BME280;9635;52.078;8.648;2022-09-24T21:32:08;100217.94;;;12.07;86.29
19005;BME280;9635;52.078;8.648;2022-09-24T21:37:12;100221.91;;;12.12;86.76
19005;BME280;9635;52.078;8.648;2022-09-24T21:42:17;100212.28;;;12.20;86.71
19005;BME280;9635;52.078;8.648;2022-09-24T21:47:20;100216.50;;;12.03;86.63
19005;BME280;9635;52.078;8.648;2022-09-24T21:52:23;100223.59;;;12.13;86.57
19005;BME280;9635;52.078;8.648;2022-09-24T21:57:29;100223.03;;;12.20;86.71
19005;BME280;9635;52.078;8.648;2022-09-24T22:02:32;100217.94;;;12.16;86.70
19005;BME280;9635;52.078;8.648;2022-09-24T22:07:35;100219.78;;;12.16;86.89
19005;BME280;9635;52.078;8.648;2022-09-24T22:12:40;100222.31;;;12.17;87.05
19005;BME280;9635;52.078;8.648;2022-09-24T22:17:44;100221.47;;;12.17;87.09
19005;BME280;9635;52.078;8.648;2022-09-24T22:22:47;100217.38;;;12.13;87.02
19005;BME280;9635;52.078;8.648;2022-09-24T22:27:51;100212.78;;;11.94;86.34
19005;BME280;9635;52.078;8.648;2022-09-24T22:32:55;100210.78;;;11.86;86.36
19005;BME280;9635;52.078;8.648;2022-09-24T22:37:58;100212.22;;;11.60;86.09
19005;BME280;9635;52.078;8.648;2022-09-24T22:43:02;100213.34;;;11.57;86.15
19005;BME280;9635;52.078;8.648;2022-09-24T22:48:05;100222.38;;;11.46;86.21
19005;BME280;9635;52.078;8.648;2022-09-24T22:53:07;100229.13;;;11.41;86.03
19005;BME280;9635;52.078;8.648;2022-09-24T22:58:12;100228.47;;;11.48;85.96
19005;BME280;9635;52.078;8.648;2022-09-24T23:03:15;100229.91;;;11.53;86.17
19005;BME280;9635;52.078;8.648;2022-09-24T23:08:17;100219.19;;;11.62;86.20
19005;BME280;9635;52.078;8.648;2022-09-24T23:13:22;100217.88;;;11.57;86.05
19005;BME280;9635;52.078;8.648;2022-09-24T23:18:25;100217.94;;;11.36;85.98
19005;BME280;9635;52.078;8.648;2022-09-24T23:28:56;100208.25;;;11.54;86.34
19005;BME280;9635;52.078;8.648;2022-09-24T23:33:59;100199.06;;;11.57;86.50
19005;BME280;9635;52.078;8.648;2022-09-24T23:39:03;100205.81;;;11.51;85.85
19005;BME280;9635;52.078;8.648;2022-09-24T23:44:07;100201.28;;;11.52;86.46
19005;BME280;9635;52.078;8.648;2022-09-24T23:49:11;100211.34;;;11.49;86.40
19005;BME280;9635;52.078;8.648;2022-09-24T23:54:14;100213.72;;;11.43;85.63
19005;BME280;9635;52.078;8.648;2022-09-24T23:59:18;100218.34;;;11.31;85.67
